McCaskill, Arkansas
Current Conditions -  °F | °C
As of 1:07 AM on Sunday 23 Nov 2014 (Local Time) from KADF Reporting Station
Moderate Rain Moderate Rain  
Wind Chill: 57°   Ceiling: 200
Heat Index: 57°   Visibility: 3mi
Dew Point: 57°   Wind: 9mph
Humidity: 100%   Direction: 130°SE
Pressure: 29.78"   Gusts: NA
Location:  33.92°N, 93.64°W
Report Text: KADF 230707Z AUTO 13008KT 3SM RA BR BKN002 14/14 A2978 RMK AO2 P0003 PRESFR
Loading
Personal Weather Stations






























Interactive Weather Map New forecast layout! Learn more

10-Day Weather Forecast

Advertisements
Track Severe Weather on mobile